KEPH/EPH METAR and TAF weather

Enter ICAO airport designator
Station Type Date Time Source
KEPH METAR 2023/01/30 10:53 UTC NOAA

KEPH 301053Z AUTO 33005KT 10SM CLR M10/M15 A3046 RMK AO2 SLP337 T11001150 $


Station Type Date Time Source
KEPH Decoded METAR 2023/01/30 10:53 UTC NOAA

EPHRATA MUNICIPAL AIRPORT, WA, United States (KEPH) 47-18N 119-31W 383M
Jan 30, 2023 - 05:53 AM EST / 2023.01.30 1053 UTC
Wind: from the NNW (330 degrees) at 6 MPH (5 KT):0
Visibility: 10 mile(s):0
Sky conditions: clear
Temperature: 14.0 F (-10.0 C)
Windchill: 5 F (-15 C):1
Dew Point: 5.0 F (-15.0 C)
Relative Humidity: 66%
Pressure (altimeter): 30.46 in. Hg (1031 hPa)
ob: KEPH 301053Z AUTO 33005KT 10SM CLR M10/M15 A3046 RMK AO2 SLP337 T11001150
cycle: 11

Station Type Date Time Source
KEPH TAF UTC NOAA

Error!

Example: see airport list